Time;durP1;ratioP1;P1;durP2;ratioP2;P2;SDS_P1;SDS_P2;PMS_P1;PMS_P2;Temp;Humidity;BMP_temperature;BMP_pressure;BME280_temperature;BME280_humidity;BME280_pressure;Samples;Min_cycle;Max_cycle;Signal;HPM_P1;HPM_P2
2022/04/16 00:01:21;;;;;;;9.50;5.57;;;;;5.90;102449.00;;;;4928336;28;20245;-69
2022/04/16 00:04:08;;;;;;;9.57;5.13;;;;;5.90;102459.00;;;;4920391;28;20237;-68
2022/04/16 00:06:55;;;;;;;10.07;5.70;;;;;5.90;102456.00;;;;4927541;28;20244;-70
2022/04/16 00:09:42;;;;;;;10.37;5.90;;;;;5.80;102446.00;;;;4912504;28;20790;-70
2022/04/16 00:12:28;;;;;;;8.90;5.17;;;;;5.80;102443.00;;;;4910832;29;20858;-70
2022/04/16 00:15:14;;;;;;;10.70;5.67;;;;;5.90;102453.00;;;;4908545;29;20883;-67
2022/04/16 00:18:01;;;;;;;9.73;5.97;;;;;5.80;102450.00;;;;4912593;29;20738;-70
2022/04/16 00:20:49;;;;;;;12.17;5.87;;;;;5.80;102456.00;;;;4922191;28;20235;-69
2022/04/16 00:23:39;;;;;;;9.33;6.40;;;;;5.80;102422.00;;;;4920939;28;20248;-69
2022/04/16 00:26:25;;;;;;;10.03;5.37;;;;;5.80;102450.00;;;;4927276;28;20232;-71
2022/04/16 00:29:12;;;;;;;9.73;5.60;;;;;5.70;102447.00;;;;4927379;28;20308;-68
2022/04/16 00:31:59;;;;;;;11.10;5.50;;;;;5.80;102451.00;;;;4925154;28;20232;-70
2022/04/16 00:34:46;;;;;;;10.40;5.20;;;;;5.70;102453.00;;;;4927424;28;20613;-70
2022/04/16 00:37:33;;;;;;;6.73;4.97;;;;;5.70;102444.00;;;;4927378;28;20298;-68
2022/04/16 00:40:20;;;;;;;9.03;5.03;;;;;5.60;102448.00;;;;4926275;28;20244;-67
2022/04/16 00:43:07;;;;;;;10.50;5.57;;;;;5.50;102445.00;;;;4925069;28;20312;-68
2022/04/16 00:45:54;;;;;;;11.83;5.77;;;;;5.40;102444.00;;;;4922510;28;20259;-69
2022/04/16 00:48:40;;;;;;;12.20;5.87;;;;;5.40;102450.00;;;;4927414;28;20274;-69
2022/04/16 00:51:27;;;;;;;8.67;5.20;;;;;5.50;102447.00;;;;4926036;28;20227;-70
2022/04/16 00:54:13;;;;;;;10.60;5.67;;;;;5.40;102435.00;;;;4911130;29;20236;-70
2022/04/16 00:57:01;;;;;;;10.73;6.13;;;;;5.40;102433.00;;;;4914414;29;20241;-70
2022/04/16 00:59:47;;;;;;;12.27;7.23;;;;;5.40;102442.00;;;;4926136;28;20344;-71
2022/04/16 01:02:35;;;;;;;17.80;6.57;;;;;5.40;102445.00;;;;4914329;28;20276;-70
2022/04/16 01:05:21;;;;;;;12.00;6.23;;;;;5.30;102445.00;;;;4908665;29;20288;-70
2022/04/16 01:08:08;;;;;;;13.43;7.37;;;;;5.40;102432.00;;;;4907933;29;20658;-69
2022/04/16 01:10:54;;;;;;;12.03;6.90;;;;;5.40;102451.00;;;;4922526;28;20229;-70
2022/04/16 01:13:45;;;;;;;12.50;6.47;;;;;5.40;102454.00;;;;4919045;28;20308;-69
2022/04/16 01:16:34;;;;;;;13.57;7.43;;;;;5.40;102445.00;;;;4918158;29;20372;-67
2022/04/16 01:19:21;;;;;;;13.80;7.57;;;;;5.50;102453.00;;;;4916185;29;20802;-70
2022/04/16 01:22:09;;;;;;;14.60;7.37;;;;;5.50;102452.00;;;;4926566;28;20232;-69
2022/04/16 01:25:00;;;;;;;14.23;7.67;;;;;5.60;102465.00;;;;4919641;28;20240;-69
2022/04/16 01:27:46;;;;;;;12.73;7.50;;;;;5.60;102462.00;;;;4920058;28;20345;-67
2022/04/16 01:30:34;;;;;;;12.97;7.73;;;;;5.70;102454.00;;;;4928756;28;20263;-69
2022/04/16 01:33:21;;;;;;;18.43;8.10;;;;;5.70;102461.00;;;;4920792;28;20236;-69
2022/04/16 01:36:08;;;;;;;12.40;7.40;;;;;5.70;102461.00;;;;4923406;28;20423;-69
2022/04/16 01:38:54;;;;;;;13.30;7.77;;;;;5.70;102466.00;;;;4911443;29;20622;-70
2022/04/16 01:41:41;;;;;;;13.50;6.93;;;;;5.80;102464.00;;;;4925953;28;20608;-70
2022/04/16 01:44:29;;;;;;;13.63;7.73;;;;;5.70;102469.00;;;;4912805;29;20241;-69
2022/04/16 01:47:15;;;;;;;16.57;8.33;;;;;5.70;102468.00;;;;4911330;29;20370;-69
2022/04/16 01:50:01;;;;;;;12.23;7.03;;;;;5.70;102463.00;;;;4911701;29;20245;-69
2022/04/16 01:52:48;;;;;;;14.13;7.37;;;;;5.70;102477.00;;;;4917176;29;20232;-68
2022/04/16 01:55:34;;;;;;;14.87;7.33;;;;;5.80;102474.00;;;;4911148;29;20249;-69
2022/04/16 01:58:22;;;;;;;15.23;7.40;;;;;5.70;102474.00;;;;4910901;29;20936;-67
2022/04/16 02:01:08;;;;;;;14.33;8.30;;;;;5.70;102449.00;;;;4924719;28;20236;-70
2022/04/16 02:03:55;;;;;;;16.30;8.70;;;;;5.70;102485.00;;;;4925079;28;20729;-68
2022/04/16 02:06:41;;;;;;;15.60;8.30;;;;;5.80;102470.00;;;;4925169;28;20240;-69
2022/04/16 02:09:28;;;;;;;13.10;7.77;;;;;5.70;102476.00;;;;4927865;28;20785;-70
2022/04/16 02:12:14;;;;;;;14.87;8.40;;;;;5.80;102474.00;;;;4929998;28;20240;-69
2022/04/16 02:15:03;;;;;;;19.03;8.30;;;;;5.70;102475.00;;;;4927888;28;20244;-70
2022/04/16 02:17:49;;;;;;;17.83;8.40;;;;;5.70;102479.00;;;;4914325;28;20740;-68
2022/04/16 02:20:36;;;;;;;18.53;9.57;;;;;5.70;102480.00;;;;4916349;28;20318;-69
2022/04/16 02:23:22;;;;;;;17.27;9.17;;;;;5.60;102477.00;;;;4919506;28;20236;-69
2022/04/16 02:26:09;;;;;;;15.03;8.00;;;;;5.70;102485.00;;;;4927476;28;20726;-69
2022/04/16 02:28:56;;;;;;;16.70;7.70;;;;;5.60;102492.00;;;;4918566;29;20257;-67
2022/04/16 02:31:45;;;;;;;15.07;7.33;;;;;5.60;102494.00;;;;4911993;29;20715;-70
2022/04/16 02:34:31;;;;;;;12.50;6.67;;;;;5.40;102482.00;;;;4920698;28;20232;-69
2022/04/16 02:37:17;;;;;;;16.83;7.77;;;;;5.40;102491.00;;;;4929084;28;20306;-69
2022/04/16 02:40:05;;;;;;;14.37;7.43;;;;;5.40;102486.00;;;;4929629;28;20244;-70
2022/04/16 02:42:51;;;;;;;13.37;7.47;;;;;5.40;102490.00;;;;4922387;28;20325;-69
2022/04/16 02:48:43;;;;;;;16.43;7.87;;;;;5.30;102502.00;;;;4914128;29;20263;-69
2022/04/16 02:51:29;;;;;;;13.53;7.57;;;;;5.30;102508.00;;;;4908804;29;20237;-69
2022/04/16 02:54:16;;;;;;;17.73;7.87;;;;;5.30;102501.00;;;;4908426;29;20297;-69
2022/04/16 02:57:03;;;;;;;14.73;7.33;;;;;5.20;102508.00;;;;4908807;29;20233;-71
2022/04/16 02:59:49;;;;;;;15.40;7.60;;;;;5.20;102504.00;;;;4910712;28;20245;-70
2022/04/16 03:02:35;;;;;;;14.70;7.73;;;;;5.20;102518.00;;;;4925345;28;20233;-69
2022/04/16 03:05:23;;;;;;;16.43;9.07;;;;;5.20;102505.00;;;;4909829;29;20236;-67
2022/04/16 03:08:12;;;;;;;15.63;7.30;;;;;5.10;102520.00;;;;4910011;29;20233;-69
2022/04/16 03:10:58;;;;;;;15.80;8.87;;;;;5.20;102520.00;;;;4923474;28;20237;-70
2022/04/16 03:13:45;;;;;;;16.63;8.30;;;;;5.20;102518.00;;;;4929290;28;20237;-66
2022/04/16 03:19:35;;;;;;;15.13;8.13;;;;;5.40;102512.00;;;;4922453;28;20263;-69
2022/04/16 03:22:24;;;;;;;16.60;9.03;;;;;5.50;102511.00;;;;4927820;28;20232;-65
2022/04/16 03:25:11;;;;;;;18.83;9.03;;;;;5.50;102509.00;;;;4915545;28;20239;-69
2022/04/16 03:27:57;;;;;;;20.10;9.97;;;;;5.40;102515.00;;;;4922539;28;20238;-69
2022/04/16 03:30:43;;;;;;;21.23;9.57;;;;;5.50;102518.00;;;;4921403;28;20278;-69
2022/04/16 03:33:31;;;;;;;18.33;10.17;;;;;5.50;102473.00;;;;4928455;28;20232;-70
2022/04/16 03:36:17;;;;;;;19.70;9.80;;;;;5.40;102512.00;;;;4928179;28;20228;-70
2022/04/16 03:39:05;;;;;;;18.17;9.03;;;;;5.50;102515.00;;;;4922479;28;20890;-70
2022/04/16 03:41:51;;;;;;;16.33;8.80;;;;;5.50;102526.00;;;;4912105;28;20237;-70
2022/04/16 03:44:38;;;;;;;22.57;11.07;;;;;5.50;102519.00;;;;4908714;29;20233;-70
2022/04/16 03:47:23;;;;;;;19.47;9.20;;;;;5.50;102524.00;;;;4908522;29;20233;-69
2022/04/16 03:50:12;;;;;;;20.73;10.30;;;;;5.40;102519.00;;;;4909217;29;20730;-71
2022/04/16 03:52:59;;;;;;;15.70;9.17;;;;;5.30;102507.00;;;;4922071;28;20629;-69
2022/04/16 04:01:54;;;;;;;15.20;8.60;;;;;5.10;102526.00;;;;4921629;28;20714;-69
2022/04/16 04:04:43;;;;;;;15.40;8.33;;;;;5.00;102524.00;;;;4927734;28;20604;-68
2022/04/16 04:07:29;;;;;;;14.83;7.97;;;;;5.00;102543.00;;;;4916197;28;20240;-69
2022/04/16 04:10:15;;;;;;;15.70;8.40;;;;;5.00;102532.00;;;;4909079;29;20245;-67
2022/04/16 04:13:04;;;;;;;18.03;8.60;;;;;4.80;102540.00;;;;4911563;29;20236;-69
2022/04/16 04:15:50;;;;;;;16.13;8.67;;;;;4.90;102534.00;;;;4908867;29;20611;-70
2022/04/16 04:18:36;;;;;;;17.63;9.30;;;;;5.00;102542.00;;;;4909979;29;20308;-70
2022/04/16 04:21:23;;;;;;;18.20;9.30;;;;;5.00;102550.00;;;;4924113;28;20271;-70
2022/04/16 04:24:09;;;;;;;18.27;8.77;;;;;5.10;102542.00;;;;4918247;28;20264;-69
2022/04/16 04:26:56;;;;;;;17.90;9.20;;;;;5.10;102549.00;;;;4912902;28;20234;-69
2022/04/16 04:29:44;;;;;;;15.43;8.90;;;;;5.10;102558.00;;;;4919508;28;21016;-69
2022/04/16 04:32:30;;;;;;;19.17;8.67;;;;;5.10;102562.00;;;;4925378;28;20789;-69
2022/04/16 04:35:16;;;;;;;17.37;8.80;;;;;5.00;102569.00;;;;4925786;28;20256;-70
2022/04/16 04:38:02;;;;;;;15.50;8.17;;;;;5.00;102571.00;;;;4913746;29;20609;-70
2022/04/16 04:40:48;;;;;;;15.67;9.27;;;;;5.00;102571.00;;;;4920100;28;20336;-70
2022/04/16 04:43:35;;;;;;;16.40;8.33;;;;;5.00;102579.00;;;;4915450;28;20684;-70
2022/04/16 04:46:23;;;;;;;20.03;9.13;;;;;5.00;102581.00;;;;4908575;29;20237;-70
2022/04/16 04:49:11;;;;;;;16.27;8.67;;;;;5.00;102586.00;;;;4909753;28;20241;-69
2022/04/16 04:51:57;;;;;;;14.33;7.60;;;;;5.10;102583.00;;;;4920953;28;20240;-70
2022/04/16 04:54:43;;;;;;;18.07;8.37;;;;;5.10;102589.00;;;;4916518;28;20233;-71
2022/04/16 04:57:29;;;;;;;20.17;9.20;;;;;5.10;102583.00;;;;4907761;29;20838;-70
2022/04/16 05:00:16;;;;;;;19.97;9.47;;;;;5.20;102592.00;;;;4910154;29;20256;-68
2022/04/16 05:03:04;;;;;;;21.20;9.13;;;;;5.20;102566.00;;;;4921349;28;20228;-70
2022/04/16 05:05:51;;;;;;;22.27;10.00;;;;;5.40;102604.00;;;;4919629;28;20326;-70
2022/04/16 05:08:37;;;;;;;18.60;9.03;;;;;5.40;102600.00;;;;4926916;28;20392;-70
2022/04/16 05:11:23;;;;;;;19.50;9.70;;;;;5.40;102598.00;;;;4926704;28;20312;-69
2022/04/16 05:14:09;;;;;;;20.40;9.87;;;;;5.50;102606.00;;;;4911118;29;20935;-68
2022/04/16 05:16:56;;;;;;;18.57;9.40;;;;;5.50;102605.00;;;;4920165;28;20344;-69
2022/04/16 05:19:44;;;;;;;17.57;9.67;;;;;5.60;102611.00;;;;4912322;29;20240;-69
2022/04/16 05:22:31;;;;;;;18.23;9.50;;;;;5.70;102612.00;;;;4910996;29;20245;-69
2022/04/16 05:25:17;;;;;;;21.47;10.00;;;;;5.70;102613.00;;;;4927224;28;20323;-69
2022/04/16 05:28:04;;;;;;;21.30;10.00;;;;;5.90;102621.00;;;;4908066;29;20823;-69
2022/04/16 05:30:54;;;;;;;24.80;10.47;;;;;6.10;102626.00;;;;4919636;28;20277;-71
2022/04/16 05:36:48;;;;;;;21.93;9.57;;;;;6.30;102639.00;;;;4907218;29;20305;-69
2022/04/16 05:39:34;;;;;;;25.57;10.67;;;;;6.40;102642.00;;;;4907981;29;20379;-69
2022/04/16 05:42:20;;;;;;;21.43;9.80;;;;;6.40;102640.00;;;;4907761;29;20327;-70
2022/04/16 05:45:08;;;;;;;20.47;10.00;;;;;6.50;102634.00;;;;4913400;28;20232;-69
2022/04/16 05:47:54;;;;;;;16.77;9.30;;;;;6.50;102645.00;;;;4919432;28;20248;-70
2022/04/16 05:50:41;;;;;;;22.60;11.17;;;;;6.60;102649.00;;;;4925425;28;20610;-69
2022/04/16 05:53:30;;;;;;;21.57;10.93;;;;;6.60;102644.00;;;;4910288;28;20241;-69
2022/04/16 05:56:17;;;;;;;24.03;11.10;;;;;6.70;102647.00;;;;4914131;28;20264;-69
2022/04/16 05:59:04;;;;;;;23.53;10.97;;;;;6.70;102653.00;;;;4920754;28;20261;-69
2022/04/16 06:01:50;;;;;;;22.53;10.70;;;;;6.80;102666.00;;;;4912191;28;20240;-70
2022/04/16 06:04:37;;;;;;;24.13;10.70;;;;;6.90;102652.00;;;;4913066;28;20254;-70
2022/04/16 06:07:23;;;;;;;24.43;10.53;;;;;6.90;102662.00;;;;4914674;28;20313;-70
2022/04/16 06:10:11;;;;;;;21.40;10.60;;;;;7.10;102660.00;;;;4922032;28;20722;-69
2022/04/16 06:12:57;;;;;;;27.07;10.93;;;;;7.10;102661.00;;;;4929982;28;20802;-70
2022/04/16 06:15:43;;;;;;;24.37;11.23;;;;;7.20;102659.00;;;;4922785;28;20236;-69
2022/04/16 06:18:30;;;;;;;26.20;11.53;;;;;7.20;102666.00;;;;4912202;28;20226;-69
2022/04/16 06:21:16;;;;;;;22.67;11.17;;;;;7.30;102677.00;;;;4910018;28;20248;-68
2022/04/16 06:24:02;;;;;;;26.50;12.47;;;;;7.40;102686.00;;;;4927943;28;20272;-70
2022/04/16 06:26:50;;;;;;;23.77;11.07;;;;;7.70;102680.00;;;;4929456;28;20240;-70
2022/04/16 06:29:36;;;;;;;25.50;11.53;;;;;7.80;102683.00;;;;4920451;28;20608;-70
2022/04/16 06:32:22;;;;;;;23.37;11.43;;;;;7.70;102681.00;;;;4913422;29;20236;-69
2022/04/16 06:35:12;;;;;;;23.97;10.93;;;;;7.90;102685.00;;;;4911094;29;20229;-71
2022/04/16 06:37:58;;;;;;;24.10;11.60;;;;;8.10;102681.00;;;;4917061;28;20230;-71
2022/04/16 06:40:44;;;;;;;29.80;11.50;;;;;8.10;102680.00;;;;4925445;28;20236;-69
2022/04/16 06:43:31;;;;;;;24.27;11.50;;;;;8.30;102687.00;;;;4929376;28;20328;-69
2022/04/16 06:46:17;;;;;;;29.70;11.70;;;;;8.30;102677.00;;;;4926648;28;20231;-71
2022/04/16 06:49:04;;;;;;;26.50;11.57;;;;;8.50;102686.00;;;;4929194;28;20268;-68
2022/04/16 06:51:50;;;;;;;33.00;11.63;;;;;8.60;102685.00;;;;4929198;28;20707;-70
2022/04/16 06:54:37;;;;;;;23.10;11.37;;;;;8.70;102685.00;;;;4929431;28;20241;-70
2022/04/16 06:57:23;;;;;;;28.27;11.80;;;;;8.80;102640.00;;;;4929160;28;20281;-70
2022/04/16 07:00:12;;;;;;;26.03;11.57;;;;;9.10;102687.00;;;;4922921;28;20240;-69
2022/04/16 07:02:58;;;;;;;27.40;11.10;;;;;9.30;102682.00;;;;4923367;28;20241;-70
2022/04/16 07:05:44;;;;;;;28.23;11.23;;;;;9.60;102686.00;;;;4917545;29;20268;-69
2022/04/16 07:08:31;;;;;;;23.70;11.47;;;;;9.50;102683.00;;;;4916729;28;20234;-69
2022/04/16 07:11:17;;;;;;;20.33;10.53;;;;;9.70;102685.00;;;;4929179;28;20237;-69
2022/04/16 07:14:03;;;;;;;20.47;9.87;;;;;9.90;102696.00;;;;4924435;28;20226;-69
2022/04/16 07:16:51;;;;;;;17.83;9.23;;;;;10.00;102685.00;;;;4909762;29;20240;-69
2022/04/16 07:19:38;;;;;;;19.63;8.97;;;;;9.80;102689.00;;;;4926419;28;20246;-69
2022/04/16 07:22:24;;;;;;;23.03;9.60;;;;;10.00;102679.00;;;;4921960;28;20242;-69
2022/04/16 07:25:10;;;;;;;20.80;9.60;;;;;10.10;102677.00;;;;4923233;28;20690;-70
2022/04/16 07:27:57;;;;;;;17.13;8.80;;;;;10.20;102680.00;;;;4928484;28;20295;-69
2022/04/16 07:30:43;;;;;;;18.17;8.20;;;;;10.20;102670.00;;;;4911617;29;20243;-69
2022/04/16 07:33:30;;;;;;;18.67;8.43;;;;;10.30;102688.00;;;;4909575;29;20683;-69
2022/04/16 07:36:17;;;;;;;16.77;8.73;;;;;10.10;102684.00;;;;4923322;28;20334;-69
2022/04/16 07:39:03;;;;;;;15.07;7.90;;;;;10.20;102679.00;;;;4921711;28;21011;-68
2022/04/16 07:41:51;;;;;;;16.73;8.50;;;;;10.20;102676.00;;;;4928398;28;20253;-67
2022/04/16 07:44:37;;;;;;;19.00;8.90;;;;;10.30;102694.00;;;;4927920;28;20295;-69
2022/04/16 07:47:23;;;;;;;16.40;8.37;;;;;10.10;102685.00;;;;4909182;29;20241;-68
2022/04/16 07:50:12;;;;;;;19.03;8.63;;;;;10.20;102690.00;;;;4925653;28;20999;-68
2022/04/16 07:52:58;;;;;;;15.70;7.47;;;;;10.50;102687.00;;;;4922575;28;20758;-69
2022/04/16 07:55:44;;;;;;;15.57;7.50;;;;;10.40;102691.00;;;;4909234;29;20607;-70
2022/04/16 07:58:30;;;;;;;17.60;7.70;;;;;10.50;102691.00;;;;4908914;29;20625;-69
2022/04/16 08:01:17;;;;;;;14.47;7.80;;;;;10.80;102692.00;;;;4925717;28;20239;-70
2022/04/16 08:04:04;;;;;;;15.00;7.67;;;;;10.80;102696.00;;;;4928327;28;20230;-68
2022/04/16 08:06:52;;;;;;;16.67;8.30;;;;;11.00;102696.00;;;;4927241;28;20240;-69
2022/04/16 08:09:38;;;;;;;11.53;6.60;;;;;10.80;102697.00;;;;4927589;28;20250;-68
2022/04/16 08:12:25;;;;;;;12.10;6.73;;;;;11.00;102693.00;;;;4917606;29;20291;-68
2022/04/16 08:15:11;;;;;;;11.83;6.70;;;;;11.10;102694.00;;;;4908900;29;20825;-69
2022/04/16 08:17:58;;;;;;;11.40;6.63;;;;;11.30;102698.00;;;;4923511;28;20325;-67
2022/04/16 08:20:45;;;;;;;11.57;6.77;;;;;11.50;102703.00;;;;4908687;29;20255;-67
2022/04/16 08:23:34;;;;;;;12.10;6.40;;;;;11.40;102708.00;;;;4908578;29;20264;-68
2022/04/16 08:26:20;;;;;;;11.47;5.80;;;;;11.50;102702.00;;;;4914223;28;20242;-68
2022/04/16 08:29:07;;;;;;;12.47;6.00;;;;;11.60;102714.00;;;;4908958;29;20233;-69
2022/04/16 08:31:54;;;;;;;11.27;5.83;;;;;11.70;102714.00;;;;4908645;29;20245;-69
2022/04/16 08:35:00;;;;;;;11.80;6.47;;;;;11.80;102710.00;;;;4908512;29;20358;-69
2022/04/16 08:37:47;;;;;;;13.93;6.57;;;;;12.00;102714.00;;;;4908152;29;20237;-66
2022/04/16 08:40:35;;;;;;;12.97;6.03;;;;;12.20;102709.00;;;;4919158;28;20335;-68
2022/04/16 08:43:22;;;;;;;11.27;6.23;;;;;12.30;102707.00;;;;4910697;29;20245;-69
2022/04/16 08:46:08;;;;;;;10.97;5.67;;;;;12.40;102709.00;;;;4913958;28;20624;-68
2022/04/16 08:48:59;;;;;;;9.50;5.53;;;;;12.60;102716.00;;;;4907983;29;20242;-69
2022/04/16 08:51:47;;;;;;;10.10;5.50;;;;;12.60;102715.00;;;;4909408;28;20254;-66
2022/04/16 08:54:36;;;;;;;9.03;5.47;;;;;12.60;102720.00;;;;4909774;28;20278;-68
2022/04/16 08:57:23;;;;;;;8.83;5.33;;;;;12.60;102721.00;;;;4915104;28;20312;-68
2022/04/16 09:00:13;;;;;;;9.30;5.37;;;;;12.60;102716.00;;;;4916331;29;20232;-68
2022/04/16 09:03:03;;;;;;;9.90;4.90;;;;;12.60;102724.00;;;;4916160;29;20370;-68
2022/04/16 09:05:54;;;;;;;10.93;5.30;;;;;12.60;102725.00;;;;4908283;29;20377;-68
2022/04/16 09:08:40;;;;;;;8.03;4.60;;;;;12.70;102719.00;;;;4908286;29;20370;-65
2022/04/16 09:11:27;;;;;;;7.53;4.73;;;;;13.00;102713.00;;;;4908419;29;20233;-67
2022/04/16 09:14:15;;;;;;;8.80;4.43;;;;;13.20;102724.00;;;;4908704;29;20241;-68
2022/04/16 09:17:01;;;;;;;7.67;4.40;;;;;13.20;102728.00;;;;4907843;29;20719;-68
2022/04/16 09:19:53;;;;;;;7.73;4.63;;;;;13.50;102721.00;;;;4908789;29;20385;-70
2022/04/16 09:22:41;;;;;;;8.27;4.20;;;;;13.70;102720.00;;;;4907872;29;20890;-68
2022/04/16 09:25:30;;;;;;;8.93;4.70;;;;;13.70;102719.00;;;;4912821;28;20237;-69
2022/04/16 09:28:18;;;;;;;6.53;4.67;;;;;13.80;102722.00;;;;4920320;28;20318;-69
2022/04/16 09:31:08;;;;;;;8.57;4.67;;;;;13.80;102730.00;;;;4919299;28;20658;-69
2022/04/16 09:33:55;;;;;;;9.50;4.27;;;;;14.00;102731.00;;;;4925248;28;20245;-69
2022/04/16 09:36:43;;;;;;;7.57;3.90;;;;;13.80;102737.00;;;;4928452;28;20237;-67
2022/04/16 09:39:29;;;;;;;7.97;4.77;;;;;13.90;102728.00;;;;4929538;28;20372;-69
2022/04/16 09:42:25;;;;;;;8.33;4.50;;;;;13.70;102728.00;;;;4923380;28;20910;-70
2022/04/16 09:45:14;;;;;;;7.57;4.40;;;;;13.70;102738.00;;;;4923963;28;20256;-68
2022/04/16 09:48:02;;;;;;;7.40;4.53;;;;;13.70;102739.00;;;;4929853;28;20237;-70
2022/04/16 09:50:49;;;;;;;7.00;4.33;;;;;13.80;102732.00;;;;4918961;28;20374;-68
2022/04/16 09:53:38;;;;;;;8.43;3.80;;;;;13.70;102737.00;;;;4911573;29;20769;-66
2022/04/16 09:56:29;;;;;;;7.50;4.27;;;;;13.80;102723.00;;;;4924844;28;20250;-68
2022/04/16 09:59:16;;;;;;;8.33;4.40;;;;;14.00;102732.00;;;;4929820;28;20237;-69
2022/04/16 10:02:04;;;;;;;7.27;4.53;;;;;14.20;102748.00;;;;4929712;28;20308;-68
2022/04/16 10:04:52;;;;;;;6.50;4.30;;;;;14.20;102750.00;;;;4930004;28;20245;-70
2022/04/16 10:07:38;;;;;;;7.60;3.90;;;;;14.20;102742.00;;;;4912373;28;20237;-69
2022/04/16 10:10:30;;;;;;;10.90;4.60;;;;;14.20;102746.00;;;;4924439;28;20726;-67
2022/04/16 10:13:20;;;;;;;8.70;4.10;;;;;14.40;102741.00;;;;4930170;28;20374;-69
2022/04/16 10:16:14;;;;;;;7.33;4.40;;;;;14.40;102742.00;;;;4926731;28;20429;-69
2022/04/16 10:19:00;;;;;;;5.97;4.13;;;;;14.60;102731.00;;;;4914385;29;20244;-70
2022/04/16 10:21:53;;;;;;;6.23;3.73;;;;;14.70;102726.00;;;;4927264;28;20726;-69
2022/04/16 10:24:48;;;;;;;7.33;4.03;;;;;14.70;102720.00;;;;4910745;28;20261;-70
2022/04/16 10:27:39;;;;;;;5.67;3.60;;;;;15.00;102729.00;;;;4909664;28;20313;-68
2022/04/16 10:30:36;;;;;;;7.40;3.97;;;;;15.10;102729.00;;;;4911307;29;20289;-70
2022/04/16 10:33:24;;;;;;;8.23;4.07;;;;;14.90;102731.00;;;;4914987;28;20768;-69
2022/04/16 10:36:10;;;;;;;5.87;3.97;;;;;14.80;102730.00;;;;4922225;28;20257;-70
2022/04/16 10:38:58;;;;;;;6.13;3.60;;;;;14.90;102738.00;;;;4929291;28;20264;-68
2022/04/16 10:41:54;;;;;;;5.33;3.73;;;;;15.00;102730.00;;;;4927353;28;20236;-68
2022/04/16 10:44:45;;;;;;;6.03;3.50;;;;;15.10;102735.00;;;;4913243;28;20241;-70
2022/04/16 10:47:37;;;;;;;6.53;3.57;;;;;15.00;102730.00;;;;4910555;28;20230;-67
2022/04/16 10:50:24;;;;;;;5.47;3.67;;;;;15.30;102732.00;;;;4915510;28;20345;-69
2022/04/16 10:53:09;;;;;;;5.87;3.83;;;;;15.30;102727.00;;;;4921560;28;20369;-66
2022/04/16 10:56:06;;;;;;;7.63;4.10;;;;;15.30;102731.00;;;;4919760;28;20783;-70
2022/04/16 10:59:00;;;;;;;7.00;3.80;;;;;15.50;102735.00;;;;4916548;28;20249;-72
2022/04/16 11:01:53;;;;;;;4.07;2.77;;;;;15.40;102728.00;;;;4914073;29;20232;-71
2022/04/16 11:04:40;;;;;;;4.07;2.90;;;;;15.60;102719.00;;;;4914489;29;21159;-69
2022/04/16 11:07:27;;;;;;;5.93;3.13;;;;;15.60;102722.00;;;;4911771;28;20372;-71
2022/04/16 11:10:14;;;;;;;5.23;3.47;;;;;15.50;102730.00;;;;4911943;29;20386;-70
2022/04/16 11:13:02;;;;;;;3.63;2.97;;;;;15.50;102722.00;;;;4913696;29;20343;-71
2022/04/16 11:15:50;;;;;;;5.60;3.20;;;;;15.50;102724.00;;;;4912678;29;20237;-71
2022/04/16 11:18:42;;;;;;;3.97;2.93;;;;;15.40;102719.00;;;;4913297;28;20303;-70
2022/04/16 11:21:29;;;;;;;4.77;2.60;;;;;15.50;102721.00;;;;4912103;29;20246;-71
2022/04/16 11:24:15;;;;;;;5.43;2.97;;;;;15.60;102720.00;;;;4921811;28;20244;-69
2022/04/16 11:36:32;;;;;;;4.97;3.23;;;;;16.30;102708.00;;;;4921828;28;20894;-70
2022/04/16 11:39:20;;;;;;;4.10;3.07;;;;;16.30;102716.00;;;;4912513;29;20252;-71
2022/04/16 11:42:08;;;;;;;3.80;2.93;;;;;16.20;102714.00;;;;4913806;28;20237;-68
2022/04/16 11:44:54;;;;;;;4.43;3.10;;;;;16.20;102708.00;;;;4912889;29;20316;-71
2022/04/16 11:47:42;;;;;;;3.33;2.57;;;;;16.20;102706.00;;;;4910953;29;20240;-69
2022/04/16 11:50:28;;;;;;;3.43;2.63;;;;;16.30;102711.00;;;;4909186;29;20241;-70
2022/04/16 11:53:14;;;;;;;3.17;2.70;;;;;16.40;102710.00;;;;4920167;28;20364;-71
2022/04/16 11:56:01;;;;;;;3.07;2.50;;;;;16.30;102708.00;;;;4927936;28;20266;-71
2022/04/16 11:58:49;;;;;;;3.40;2.57;;;;;16.20;102717.00;;;;4928031;28;20246;-69
2022/04/16 12:01:36;;;;;;;3.27;2.50;;;;;16.30;102702.00;;;;4920318;28;20718;-69
2022/04/16 12:04:33;;;;;;;3.17;2.50;;;;;16.70;102688.00;;;;4909346;29;20452;-72
2022/04/16 12:07:20;;;;;;;3.17;2.17;;;;;16.90;102692.00;;;;4917492;28;20229;-72
2022/04/16 12:10:06;;;;;;;3.50;2.50;;;;;17.10;102711.00;;;;4923092;28;20309;-70
2022/04/16 12:12:54;;;;;;;2.37;1.90;;;;;17.10;102701.00;;;;4908780;29;20772;-69
2022/04/16 12:15:43;;;;;;;2.83;2.00;;;;;17.50;102699.00;;;;4909413;29;20250;-70
2022/04/16 12:18:35;;;;;;;2.33;2.13;;;;;17.60;102711.00;;;;4914105;29;20352;-68
2022/04/16 12:21:23;;;;;;;2.07;1.87;;;;;17.60;102704.00;;;;4909100;29;20265;-71
2022/04/16 12:24:09;;;;;;;2.37;1.90;;;;;17.70;102694.00;;;;4909219;29;20244;-69
2022/04/16 12:26:56;;;;;;;2.70;1.63;;;;;17.90;102691.00;;;;4909667;29;20347;-67
2022/04/16 12:29:49;;;;;;;3.13;2.23;;;;;17.80;102700.00;;;;4910254;29;20245;-71
2022/04/16 12:32:35;;;;;;;3.53;2.57;;;;;17.70;102694.00;;;;4910879;29;20225;-70
2022/04/16 12:35:22;;;;;;;3.03;1.97;;;;;18.10;102697.00;;;;4920591;28;20253;-69
2022/04/16 12:38:14;;;;;;;2.47;1.50;;;;;17.90;102702.00;;;;4927029;28;20244;-71
2022/04/16 12:41:06;;;;;;;2.43;1.60;;;;;17.60;102700.00;;;;4927322;28;20304;-71
2022/04/16 12:43:52;;;;;;;2.10;1.50;;;;;17.40;102695.00;;;;4912231;29;20256;-69
2022/04/16 12:46:39;;;;;;;1.60;1.50;;;;;17.20;102701.00;;;;4907515;29;20600;-70
2022/04/16 12:49:25;;;;;;;2.37;1.60;;;;;17.30;102698.00;;;;4913201;28;20297;-72
2022/04/16 12:52:11;;;;;;;1.60;1.50;;;;;17.50;102702.00;;;;4927304;28;20275;-71
2022/04/16 12:54:59;;;;;;;1.77;1.40;;;;;17.80;102704.00;;;;4918319;28;20241;-69
2022/04/16 12:57:45;;;;;;;1.50;1.40;;;;;18.10;102691.00;;;;4915524;28;20892;-71
2022/04/16 13:00:34;;;;;;;1.10;1.10;;;;;18.00;102691.00;;;;4915270;28;20232;-71
2022/04/16 13:03:21;;;;;;;1.20;1.10;;;;;18.10;102683.00;;;;4915358;28;20317;-70
2022/04/16 13:06:07;;;;;;;1.80;1.20;;;;;18.40;102672.00;;;;4907997;29;20258;-70
2022/04/16 13:08:54;;;;;;;1.40;1.30;;;;;18.60;102677.00;;;;4907956;29;20288;-72
2022/04/16 13:11:42;;;;;;;1.63;1.27;;;;;18.70;102671.00;;;;4918396;29;20323;-73
2022/04/16 13:14:28;;;;;;;2.70;1.20;;;;;18.40;102668.00;;;;4920192;28;20231;-73
2022/04/16 13:17:14;;;;;;;1.30;1.20;;;;;18.50;102663.00;;;;4915935;29;20277;-72
2022/04/16 13:20:01;;;;;;;2.40;1.23;;;;;18.40;102670.00;;;;4924443;28;20947;-69
2022/04/16 13:22:47;;;;;;;1.40;1.30;;;;;18.50;102664.00;;;;4927040;28;20369;-71
2022/04/16 13:25:33;;;;;;;1.30;1.20;;;;;18.60;102665.00;;;;4913472;28;20241;-69
2022/04/16 13:28:22;;;;;;;2.20;1.30;;;;;18.60;102662.00;;;;4915407;28;20246;-67
2022/04/16 13:31:09;;;;;;;1.80;1.20;;;;;18.50;102667.00;;;;4910167;29;20242;-70
2022/04/16 13:33:56;;;;;;;1.53;1.33;;;;;18.60;102658.00;;;;4906939;28;20737;-69
2022/04/16 13:36:42;;;;;;;3.27;1.53;;;;;18.80;102665.00;;;;4920289;28;20241;-70
2022/04/16 13:42:31;;;;;;;1.17;1.07;;;;;18.90;102655.00;;;;4914140;28;20231;-72
2022/04/16 13:45:19;;;;;;;1.33;1.20;;;;;19.10;102662.00;;;;4912885;28;20828;-71
2022/04/16 13:48:06;;;;;;;1.70;1.27;;;;;19.30;102660.00;;;;4907557;29;20261;-71
2022/04/16 13:50:55;;;;;;;1.17;1.07;;;;;19.20;102659.00;;;;4907755;29;20621;-70
2022/04/16 13:53:41;;;;;;;1.40;1.30;;;;;18.90;102654.00;;;;4923557;28;20600;-70
2022/04/16 13:56:28;;;;;;;1.17;0.90;;;;;19.20;102651.00;;;;4919430;28;20237;-67
2022/04/16 13:59:15;;;;;;;1.37;1.20;;;;;19.10;102659.00;;;;4910209;29;20250;-69
2022/04/16 14:02:03;;;;;;;1.43;1.30;;;;;19.20;102649.00;;;;4919311;28;20706;-69
2022/04/16 14:07:53;;;;;;;1.40;1.30;;;;;19.40;102655.00;;;;4914637;28;20233;-70
2022/04/16 14:10:41;;;;;;;1.20;1.10;;;;;19.50;102650.00;;;;4921444;28;20225;-67
2022/04/16 14:13:32;;;;;;;1.30;1.20;;;;;19.50;102647.00;;;;4919697;28;20241;-71
2022/04/16 14:16:19;;;;;;;1.47;1.20;;;;;19.50;102645.00;;;;4923213;28;20272;-71